createdAt,value
2022-10-03T00:01:45.686Z,6.37
2022-10-03T00:04:27.028Z,6.30
2022-10-03T00:07:16.584Z,5.57
2022-10-03T00:10:01.323Z,6.20
2022-10-03T00:12:52.804Z,7.13
2022-10-03T00:15:46.762Z,7.30
2022-10-03T00:18:57.428Z,7.20
2022-10-03T00:21:48.009Z,5.30
2022-10-03T00:24:50.729Z,6.10
2022-10-03T00:27:26.370Z,6.17
2022-10-03T00:30:19.416Z,5.60
2022-10-03T00:33:06.579Z,6.60
2022-10-03T00:36:01.027Z,6.20
2022-10-03T00:38:42.016Z,7.77
2022-10-03T00:41:27.660Z,6.40
2022-10-03T00:44:47.690Z,6.67
2022-10-03T00:47:56.146Z,6.70
2022-10-03T00:50:32.453Z,6.40
2022-10-03T00:53:24.665Z,10.20
2022-10-03T00:56:03.623Z,7.20
2022-10-03T00:58:50.604Z,7.70
2022-10-03T01:01:25.015Z,7.50
2022-10-03T01:04:05.508Z,7.90
2022-10-03T01:06:42.273Z,6.30
2022-10-03T01:09:22.792Z,7.53
2022-10-03T01:12:47.317Z,7.97
2022-10-03T01:15:32.726Z,7.37
2022-10-03T01:18:27.764Z,8.53
2022-10-03T01:21:24.466Z,7.53
2022-10-03T01:24:39.040Z,6.60
2022-10-03T01:27:32.628Z,7.50
2022-10-03T01:30:23.567Z,7.70
2022-10-03T01:33:09.192Z,7.33
2022-10-03T01:35:55.413Z,8.10
2022-10-03T01:38:29.822Z,6.80
2022-10-03T01:41:15.269Z,6.87
2022-10-03T01:43:58.362Z,7.20
2022-10-03T01:46:36.626Z,6.70
2022-10-03T01:49:33.948Z,6.47
2022-10-03T01:52:06.687Z,6.37
2022-10-03T01:55:05.239Z,5.87
2022-10-03T01:57:53.626Z,6.73
2022-10-03T02:00:24.940Z,5.90
2022-10-03T02:03:00.460Z,6.70
2022-10-03T02:05:50.082Z,6.70
2022-10-03T02:08:35.549Z,5.80
2022-10-03T02:11:08.384Z,6.07
2022-10-03T02:13:52.863Z,5.23
2022-10-03T02:16:42.580Z,5.67
2022-10-03T02:19:33.930Z,5.20
2022-10-03T02:22:01.356Z,5.23
2022-10-03T02:24:46.509Z,6.00
2022-10-03T02:27:26.275Z,5.07
2022-10-03T02:30:13.474Z,5.67
2022-10-03T02:33:33.131Z,5.83
2022-10-03T02:36:37.355Z,5.53
2022-10-03T02:39:30.626Z,6.00
2022-10-03T02:42:15.936Z,7.00
2022-10-03T02:44:54.735Z,6.73
2022-10-03T02:48:19.775Z,6.80
2022-10-03T02:51:04.349Z,7.40
2022-10-03T02:54:08.788Z,7.73
2022-10-03T02:56:48.184Z,7.40
2022-10-03T02:59:18.142Z,8.90
2022-10-03T03:01:53.816Z,7.33
2022-10-03T03:04:37.359Z,7.83
2022-10-03T03:07:19.826Z,8.20
2022-10-03T03:10:17.330Z,6.90
2022-10-03T03:13:08.849Z,7.50
2022-10-03T03:15:38.410Z,7.57
2022-10-03T03:18:11.267Z,8.90
2022-10-03T03:21:09.150Z,7.87
2022-10-03T03:23:56.132Z,8.30
2022-10-03T03:27:04.604Z,8.17
2022-10-03T03:29:45.338Z,8.57
2022-10-03T03:32:38.413Z,7.83
2022-10-03T03:35:23.501Z,8.47
2022-10-03T03:38:16.721Z,8.50
2022-10-03T03:41:25.082Z,7.77
2022-10-03T03:44:31.327Z,8.33
2022-10-03T03:47:28.138Z,8.70
2022-10-03T03:50:11.499Z,9.00
2022-10-03T03:52:46.130Z,9.20
2022-10-03T03:55:34.027Z,9.07
2022-10-03T03:58:24.327Z,8.30
2022-10-03T04:01:29.415Z,10.60
2022-10-03T04:04:05.085Z,10.10
2022-10-03T04:06:56.230Z,11.57
2022-10-03T04:09:47.672Z,8.57
2022-10-03T04:12:24.636Z,9.97
2022-10-03T04:15:16.199Z,10.40
2022-10-03T04:18:20.135Z,9.03
2022-10-03T04:21:07.790Z,9.67
2022-10-03T04:24:05.038Z,9.17
2022-10-03T04:26:59.664Z,8.90
2022-10-03T04:29:48.089Z,8.63
2022-10-03T04:32:49.866Z,8.50
2022-10-03T04:35:44.634Z,8.67
2022-10-03T04:38:17.062Z,9.73
2022-10-03T04:41:01.842Z,9.63
2022-10-03T04:43:40.430Z,8.97
2022-10-03T04:46:53.026Z,10.33
2022-10-03T04:50:00.619Z,8.23
2022-10-03T04:52:49.080Z,9.40
2022-10-03T04:55:40.319Z,8.90
2022-10-03T04:58:24.954Z,7.93
2022-10-03T05:01:06.972Z,8.77
2022-10-03T05:04:05.078Z,9.40
2022-10-03T05:06:59.127Z,8.50
2022-10-03T05:09:42.428Z,7.67
2022-10-03T05:12:44.518Z,6.83
2022-10-03T05:15:11.704Z,6.93
2022-10-03T05:17:53.227Z,8.33
2022-10-03T05:20:28.074Z,7.43
2022-10-03T05:23:24.470Z,6.20
2022-10-03T05:26:39.778Z,8.00
2022-10-03T05:29:17.478Z,6.97
2022-10-03T05:32:14.826Z,7.90
2022-10-03T05:34:59.623Z,7.53
2022-10-03T05:37:37.646Z,7.13
2022-10-03T05:40:27.932Z,6.90
2022-10-03T05:43:02.759Z,7.87
2022-10-03T05:45:56.163Z,6.90
2022-10-03T05:48:50.223Z,8.23
2022-10-03T05:51:39.696Z,7.83
2022-10-03T05:54:52.043Z,7.43
2022-10-03T05:57:31.022Z,7.30
2022-10-03T06:00:15.013Z,7.60
2022-10-03T06:02:59.422Z,7.00
2022-10-03T06:05:56.644Z,7.90
2022-10-03T06:09:08.109Z,8.07
2022-10-03T06:11:55.262Z,8.33
2022-10-03T06:14:35.392Z,8.97
2022-10-03T06:17:10.973Z,7.60
2022-10-03T06:20:09.431Z,7.50
2022-10-03T06:22:54.603Z,8.57
2022-10-03T06:25:58.536Z,8.13
2022-10-03T06:28:51.890Z,7.77
2022-10-03T06:31:56.336Z,7.23
2022-10-03T06:35:04.367Z,6.60
2022-10-03T06:38:16.182Z,7.03
2022-10-03T06:41:18.397Z,7.83
2022-10-03T06:44:12.969Z,8.23
2022-10-03T06:46:46.011Z,8.50
2022-10-03T06:49:30.074Z,7.00
2022-10-03T06:52:40.869Z,6.83
2022-10-03T06:55:31.544Z,7.73
2022-10-03T06:58:20.221Z,7.80
2022-10-03T07:00:56.187Z,6.50
2022-10-03T07:03:36.071Z,7.60
2022-10-03T07:06:20.758Z,6.97
2022-10-03T07:09:15.274Z,5.67
2022-10-03T07:12:16.856Z,7.90
2022-10-03T07:15:07.709Z,6.43
2022-10-03T07:17:59.447Z,10.60
2022-10-03T07:20:31.984Z,9.20
2022-10-03T07:23:36.693Z,7.23
2022-10-03T07:26:39.726Z,7.03
2022-10-03T07:29:27.105Z,6.33
2022-10-03T07:32:17.748Z,6.30
2022-10-03T07:35:12.751Z,6.80
2022-10-03T07:38:48.694Z,7.47
2022-10-03T07:41:45.182Z,6.73
2022-10-03T07:44:31.015Z,7.80
2022-10-03T07:47:15.710Z,8.10
2022-10-03T07:49:48.695Z,7.40
2022-10-03T07:52:33.942Z,8.10
2022-10-03T07:55:19.862Z,6.27
2022-10-03T07:58:05.196Z,8.23
2022-10-03T08:00:43.366Z,8.10
2022-10-03T08:03:47.629Z,8.23
2022-10-03T08:06:53.340Z,7.10
2022-10-03T08:09:38.299Z,7.90
2022-10-03T08:12:29.710Z,7.60
2022-10-03T08:15:26.392Z,7.57
2022-10-03T08:18:23.114Z,7.73
2022-10-03T08:21:04.408Z,7.50
2022-10-03T08:23:51.089Z,7.93
2022-10-03T08:26:27.912Z,8.60
2022-10-03T08:29:31.134Z,6.87
2022-10-03T08:32:11.207Z,7.80
2022-10-03T08:35:17.100Z,7.33
2022-10-03T08:37:52.653Z,7.77
2022-10-03T08:40:40.361Z,6.60
2022-10-03T08:43:44.911Z,10.57
2022-10-03T08:46:39.814Z,8.40
2022-10-03T08:49:33.782Z,7.87
2022-10-03T08:52:03.350Z,6.63
2022-10-03T08:54:32.870Z,7.67
2022-10-03T08:57:08.495Z,7.43
2022-10-03T08:59:54.003Z,7.73
2022-10-03T09:02:40.862Z,7.73
2022-10-03T09:05:30.410Z,8.40
2022-10-03T09:08:31.200Z,8.00
2022-10-03T09:11:26.351Z,8.83
2022-10-03T09:14:11.755Z,8.60
2022-10-03T09:17:04.171Z,8.00
2022-10-03T09:19:35.127Z,8.33
2022-10-03T09:22:27.777Z,8.03
2022-10-03T09:25:12.505Z,7.70
2022-10-03T09:28:25.661Z,8.50
2022-10-03T09:31:13.643Z,6.90
2022-10-03T09:33:55.779Z,7.47
2022-10-03T09:37:05.423Z,6.43
2022-10-03T09:39:50.943Z,7.40
2022-10-03T09:43:08.122Z,7.50
2022-10-03T09:45:59.503Z,7.17
2022-10-03T09:48:32.787Z,8.50
2022-10-03T09:51:20.170Z,7.03
2022-10-03T09:54:19.885Z,6.40
2022-10-03T09:57:25.734Z,6.27
2022-10-03T09:59:58.467Z,6.23
2022-10-03T10:02:46.780Z,6.70
2022-10-03T10:05:45.475Z,6.33
2022-10-03T10:08:34.001Z,6.63
2022-10-03T10:11:35.263Z,7.50
2022-10-03T10:14:10.929Z,7.13
2022-10-03T10:16:58.053Z,6.43
2022-10-03T10:19:27.581Z,8.80
2022-10-03T10:21:56.996Z,7.93
2022-10-03T10:24:46.728Z,9.57
2022-10-03T10:27:32.487Z,7.50
2022-10-03T10:30:23.407Z,5.93
2022-10-03T10:33:17.792Z,6.13
2022-10-03T10:35:47.267Z,5.20
2022-10-03T10:38:38.102Z,5.50
2022-10-03T10:41:42.702Z,6.10
2022-10-03T10:44:29.790Z,6.10
2022-10-03T10:47:13.749Z,6.47
2022-10-03T10:50:06.249Z,5.67
2022-10-03T10:52:44.852Z,4.70
2022-10-03T10:55:43.991Z,4.00
2022-10-03T10:58:31.444Z,5.03
2022-10-03T11:01:19.811Z,5.00
2022-10-03T11:04:08.248Z,4.53
2022-10-03T11:07:04.197Z,4.30
2022-10-03T11:10:09.236Z,5.43
2022-10-03T11:13:13.561Z,5.17
2022-10-03T11:16:11.299Z,4.63
2022-10-03T11:18:46.921Z,5.10
2022-10-03T11:21:33.846Z,4.53
2022-10-03T11:24:20.213Z,4.63
2022-10-03T11:27:08.763Z,4.90
2022-10-03T11:30:13.684Z,4.40
2022-10-03T11:33:02.103Z,3.77
2022-10-03T11:36:04.156Z,3.70
2022-10-03T11:38:55.233Z,3.97
2022-10-03T11:41:35.847Z,4.00
2022-10-03T11:44:29.801Z,5.50
2022-10-03T11:47:30.896Z,4.40
2022-10-03T11:50:16.425Z,3.80
2022-10-03T11:52:53.872Z,5.37
2022-10-03T11:55:39.351Z,6.53
2022-10-03T11:58:50.190Z,6.00
2022-10-03T12:01:44.305Z,6.80
2022-10-03T12:04:23.606Z,7.23
2022-10-03T12:07:28.068Z,6.07
2022-10-03T12:10:08.005Z,7.40
2022-10-03T12:12:48.180Z,6.40
2022-10-03T12:15:40.956Z,7.00
2022-10-03T12:18:42.477Z,7.53
2022-10-03T12:21:25.680Z,5.30
2022-10-03T12:24:18.363Z,4.13
2022-10-03T12:27:06.152Z,5.47
2022-10-03T12:29:36.313Z,5.00
2022-10-03T12:32:24.271Z,4.40
2022-10-03T12:35:04.683Z,3.87
2022-10-03T12:38:02.284Z,4.97
2022-10-03T12:40:41.864Z,4.20
2022-10-03T12:43:34.900Z,4.63
2022-10-03T12:46:11.169Z,4.70
2022-10-03T12:49:03.814Z,3.53
2022-10-03T12:51:43.063Z,3.73
2022-10-03T12:54:49.514Z,3.53
2022-10-03T12:57:40.610Z,4.30
2022-10-03T13:00:21.012Z,3.83
2022-10-03T13:03:11.528Z,3.20
2022-10-03T13:05:55.747Z,2.90
2022-10-03T13:08:34.348Z,2.60
2022-10-03T13:11:26.141Z,2.73
2022-10-03T13:14:02.007Z,3.23
2022-10-03T13:16:35.222Z,3.30
2022-10-03T13:19:25.197Z,2.90
2022-10-03T13:21:54.908Z,3.00
2022-10-03T13:24:40.039Z,2.63
2022-10-03T13:27:35.401Z,3.07
2022-10-03T13:30:29.019Z,3.50
2022-10-03T13:33:25.666Z,3.10
2022-10-03T13:36:14.966Z,2.90
2022-10-03T13:39:00.090Z,2.80
2022-10-03T13:41:32.477Z,2.73
2022-10-03T13:44:23.708Z,2.80
2022-10-03T13:47:17.019Z,3.70
2022-10-03T13:49:56.915Z,3.23
2022-10-03T13:52:31.254Z,2.83
2022-10-03T13:55:20.495Z,7.93
2022-10-03T13:58:19.492Z,4.77
2022-10-03T14:01:07.320Z,3.50
2022-10-03T14:03:45.469Z,3.10
2022-10-03T14:06:26.511Z,2.77
2022-10-03T14:09:14.853Z,2.20
2022-10-03T14:11:44.487Z,2.60
2022-10-03T14:14:45.615Z,2.40
2022-10-03T14:17:18.281Z,2.90
2022-10-03T14:19:53.781Z,2.83
2022-10-03T14:22:32.620Z,2.63
2022-10-03T14:25:17.869Z,2.60
2022-10-03T14:27:49.387Z,3.00
2022-10-03T14:30:25.372Z,3.27
2022-10-03T14:33:17.127Z,2.43
2022-10-03T14:35:52.946Z,2.50
2022-10-03T14:38:52.965Z,3.10
2022-10-03T14:41:23.656Z,2.97
2022-10-03T14:44:12.946Z,3.07
2022-10-03T14:46:47.130Z,2.43
2022-10-03T14:52:39.961Z,3.23
2022-10-03T14:55:14.800Z,2.37
2022-10-03T14:58:11.168Z,2.93
2022-10-03T15:00:46.146Z,2.60
2022-10-03T15:03:21.462Z,3.27
2022-10-03T15:05:57.041Z,2.10
2022-10-03T15:08:31.233Z,3.43
2022-10-03T15:10:59.356Z,2.97
2022-10-03T15:13:28.967Z,2.90
2022-10-03T15:15:56.784Z,2.60
2022-10-03T15:18:24.586Z,2.37
2022-10-03T15:20:55.432Z,2.60
2022-10-03T15:23:40.369Z,3.57
2022-10-03T15:26:18.793Z,2.40
2022-10-03T15:28:50.030Z,3.33
2022-10-03T15:31:45.676Z,3.20
2022-10-03T15:34:25.795Z,2.50
2022-10-03T15:37:01.550Z,7.40
2022-10-03T15:39:33.504Z,2.90
2022-10-03T15:42:22.940Z,2.77
2022-10-03T15:44:53.575Z,3.33
2022-10-03T15:47:27.373Z,3.03
2022-10-03T15:50:17.135Z,2.50
2022-10-03T15:52:52.450Z,3.10
2022-10-03T15:55:42.221Z,2.60
2022-10-03T15:58:29.782Z,2.47
2022-10-03T16:01:11.876Z,3.00
2022-10-03T16:03:47.677Z,2.13
2022-10-03T16:06:49.377Z,3.07
2022-10-03T16:09:52.099Z,15.80
2022-10-03T16:12:47.056Z,9.70
2022-10-03T16:15:27.651Z,6.00
2022-10-03T16:18:35.976Z,6.67
2022-10-03T16:21:04.661Z,3.00
2022-10-03T16:23:38.009Z,3.13
2022-10-03T16:26:20.658Z,2.60
2022-10-03T16:29:01.667Z,2.40
2022-10-03T16:31:38.365Z,2.77
2022-10-03T16:34:15.394Z,2.97
2022-10-03T16:36:45.153Z,3.50
2022-10-03T16:39:25.462Z,2.93
2022-10-03T16:41:56.848Z,6.60
2022-10-03T16:44:44.170Z,3.10
2022-10-03T16:47:11.929Z,2.30
2022-10-03T16:50:08.116Z,2.70
2022-10-03T16:52:39.387Z,3.40
2022-10-03T16:55:43.250Z,3.63
2022-10-03T16:58:09.898Z,3.13
2022-10-03T17:01:22.223Z,3.40
2022-10-03T17:04:12.580Z,3.40
2022-10-03T17:06:40.524Z,3.20
2022-10-03T17:09:17.936Z,3.33
2022-10-03T17:11:52.319Z,3.13
2022-10-03T17:14:20.851Z,3.47
2022-10-03T17:16:57.130Z,3.70
2022-10-03T17:19:34.946Z,4.47
2022-10-03T17:22:24.019Z,3.77
2022-10-03T17:25:18.076Z,4.00
2022-10-03T17:27:49.585Z,4.40
2022-10-03T17:30:54.845Z,4.47
2022-10-03T17:33:40.243Z,5.30
2022-10-03T17:36:18.839Z,6.00
2022-10-03T17:39:33.010Z,7.47
2022-10-03T17:42:09.169Z,7.00
2022-10-03T17:44:38.440Z,8.97
2022-10-03T17:47:22.937Z,10.40
2022-10-03T17:49:58.107Z,12.47
2022-10-03T17:52:26.126Z,15.20
2022-10-03T17:55:04.855Z,15.30
2022-10-03T17:57:38.579Z,15.13
2022-10-03T18:00:23.310Z,15.00
2022-10-03T18:03:24.007Z,17.27
2022-10-03T18:05:53.426Z,14.63
2022-10-03T18:08:27.437Z,12.90
2022-10-03T18:10:56.531Z,14.30
2022-10-03T18:13:42.342Z,11.50
2022-10-03T18:16:35.099Z,11.00
2022-10-03T18:20:15.714Z,11.20
2022-10-03T18:22:48.993Z,27.40
2022-10-03T18:26:18.244Z,40.50
2022-10-03T18:29:14.551Z,24.90
2022-10-03T18:31:46.056Z,14.30
2022-10-03T18:34:15.834Z,14.77
2022-10-03T18:36:47.396Z,13.37
2022-10-03T18:39:31.049Z,14.30
2022-10-03T18:42:00.185Z,13.27
2022-10-03T18:44:30.348Z,11.37
2022-10-03T18:47:30.114Z,10.40
2022-10-03T18:50:10.497Z,9.23
2022-10-03T18:53:16.626Z,8.60
2022-10-03T18:55:48.419Z,8.33
2022-10-03T18:58:36.020Z,8.70
2022-10-03T19:01:17.128Z,10.47
2022-10-03T19:03:59.229Z,8.63
2022-10-03T19:06:34.346Z,8.77
2022-10-03T19:09:28.268Z,6.30
2022-10-03T19:12:14.576Z,7.50
2022-10-03T19:15:15.788Z,9.33
2022-10-03T19:18:01.764Z,9.67
2022-10-03T19:20:37.245Z,8.17
2022-10-03T19:23:13.064Z,9.97
2022-10-03T19:25:42.842Z,12.03
2022-10-03T19:28:39.022Z,10.30
2022-10-03T19:31:17.565Z,9.77
2022-10-03T19:33:50.461Z,11.50
2022-10-03T19:36:26.262Z,11.67
2022-10-03T19:38:54.798Z,12.40
2022-10-03T19:41:52.345Z,9.03
2022-10-03T19:44:25.440Z,7.70
2022-10-03T19:46:52.100Z,7.67
2022-10-03T19:49:39.610Z,5.53
2022-10-03T19:52:16.790Z,6.17
2022-10-03T19:54:48.462Z,6.33
2022-10-03T19:57:40.589Z,9.00
2022-10-03T20:00:34.875Z,4.87
2022-10-03T20:03:23.119Z,5.80
2022-10-03T20:05:53.746Z,6.47
2022-10-03T20:08:38.668Z,5.50
2022-10-03T20:11:24.228Z,5.40
2022-10-03T20:13:51.310Z,6.30
2022-10-03T20:16:21.743Z,7.37
2022-10-03T20:18:55.989Z,9.03
2022-10-03T20:21:28.667Z,9.80
2022-10-03T20:23:58.009Z,14.50
2022-10-03T20:26:32.069Z,9.80
2022-10-03T20:29:25.033Z,9.40
2022-10-03T20:31:58.025Z,8.27
2022-10-03T20:34:25.112Z,7.33
2022-10-03T20:37:30.498Z,9.10
2022-10-03T20:40:25.523Z,7.30
2022-10-03T20:42:58.734Z,8.20
2022-10-03T20:45:29.688Z,7.97
2022-10-03T20:48:11.529Z,8.60
2022-10-03T20:50:47.349Z,8.53
2022-10-03T20:53:26.495Z,7.47
2022-10-03T20:56:10.452Z,8.30
2022-10-03T20:58:50.235Z,9.70
2022-10-03T21:01:22.545Z,9.90
2022-10-03T21:04:26.576Z,9.30
2022-10-03T21:06:58.156Z,11.57
2022-10-03T21:09:42.887Z,11.23
2022-10-03T21:12:47.781Z,13.50
2022-10-03T21:15:29.848Z,22.80
2022-10-03T21:17:57.861Z,18.17
2022-10-03T21:20:32.657Z,16.37
2022-10-03T21:23:04.109Z,14.77
2022-10-03T21:25:35.173Z,13.73
2022-10-03T21:28:03.703Z,13.82
2022-10-03T21:30:53.733Z,14.68
2022-10-03T21:33:49.570Z,10.20
2022-10-03T21:36:34.220Z,9.00
2022-10-03T21:39:22.969Z,8.10
2022-10-03T21:42:16.586Z,9.17
2022-10-03T21:45:02.248Z,10.53
2022-10-03T21:47:33.851Z,12.60
2022-10-03T21:50:03.773Z,12.17
2022-10-03T21:52:51.715Z,10.60
2022-10-03T21:55:52.685Z,10.82
2022-10-03T21:58:26.034Z,8.52
2022-10-03T22:01:09.957Z,9.00
2022-10-03T22:03:55.201Z,7.87
2022-10-03T22:06:27.492Z,8.07
2022-10-03T22:09:00.368Z,8.87
2022-10-03T22:12:02.488Z,8.60
2022-10-03T22:14:51.157Z,9.55
2022-10-03T22:17:48.196Z,9.70
2022-10-03T22:20:23.286Z,9.13
2022-10-03T22:23:09.113Z,10.20
2022-10-03T22:25:45.139Z,8.47
2022-10-03T22:28:26.825Z,8.60
2022-10-03T22:31:11.596Z,8.13
2022-10-03T22:33:48.351Z,8.10
2022-10-03T22:36:16.989Z,8.23
2022-10-03T22:38:44.960Z,8.68
2022-10-03T22:41:16.334Z,8.60
2022-10-03T22:43:44.490Z,9.05
2022-10-03T22:46:18.189Z,7.68
2022-10-03T22:48:53.293Z,8.05
2022-10-03T22:51:21.822Z,8.75
2022-10-03T22:53:53.508Z,9.60
2022-10-03T22:56:45.465Z,10.07
2022-10-03T22:59:27.205Z,9.73
2022-10-03T23:01:57.396Z,9.48
2022-10-03T23:04:40.475Z,8.40
2022-10-03T23:07:31.836Z,9.05
2022-10-03T23:10:40.147Z,8.77
2022-10-03T23:13:34.863Z,8.20
2022-10-03T23:16:35.659Z,8.00
2022-10-03T23:19:21.099Z,8.30
2022-10-03T23:21:52.886Z,8.02
2022-10-03T23:24:56.842Z,9.07
2022-10-03T23:28:05.648Z,8.43
2022-10-03T23:30:35.195Z,8.73
2022-10-03T23:33:02.020Z,9.00
2022-10-03T23:35:31.829Z,8.75
2022-10-03T23:38:00.131Z,8.15
2022-10-03T23:40:45.297Z,8.80
2022-10-03T23:43:35.483Z,9.20
2022-10-03T23:46:05.281Z,8.98
2022-10-03T23:48:49.477Z,10.18
2022-10-03T23:51:21.123Z,9.07
2022-10-03T23:53:53.272Z,9.07
2022-10-03T23:56:26.404Z,9.73
2022-10-03T23:59:17.965Z,8.93
